sensor_id;sensor_type;location;lat;lon;timestamp;P1;durP1;ratioP1;P2;durP2;ratioP2
10315;SDS011;5203;48.976;8.306;2024-01-10T00:01:42;18.65;;;13.00;;
10315;SDS011;5203;48.976;8.306;2024-01-10T00:04:08;18.05;;;12.70;;
10315;SDS011;5203;48.976;8.306;2024-01-10T00:06:34;22.73;;;13.73;;
10315;SDS011;5203;48.976;8.306;2024-01-10T00:08:59;15.85;;;11.73;;
10315;SDS011;5203;48.976;8.306;2024-01-10T00:11:25;16.90;;;10.35;;
10315;SDS011;5203;48.976;8.306;2024-01-10T00:13:51;23.80;;;13.40;;
10315;SDS011;5203;48.976;8.306;2024-01-10T00:16:16;20.98;;;12.70;;
10315;SDS011;5203;48.976;8.306;2024-01-10T00:18:42;17.75;;;11.55;;
10315;SDS011;5203;48.976;8.306;2024-01-10T00:21:08;18.95;;;14.35;;
10315;SDS011;5203;48.976;8.306;2024-01-10T00:23:35;18.05;;;10.77;;
10315;SDS011;5203;48.976;8.306;2024-01-10T00:26:01;16.83;;;11.55;;
10315;SDS011;5203;48.976;8.306;2024-01-10T00:28:26;20.10;;;11.27;;
10315;SDS011;5203;48.976;8.306;2024-01-10T00:30:52;17.52;;;12.15;;
10315;SDS011;5203;48.976;8.306;2024-01-10T00:33:18;16.55;;;12.88;;
10315;SDS011;5203;48.976;8.306;2024-01-10T00:35:43;19.95;;;11.75;;
10315;SDS011;5203;48.976;8.306;2024-01-10T00:38:09;18.88;;;13.93;;
10315;SDS011;5203;48.976;8.306;2024-01-10T00:40:35;19.70;;;12.82;;
10315;SDS011;5203;48.976;8.306;2024-01-10T00:43:01;16.88;;;11.15;;
10315;SDS011;5203;48.976;8.306;2024-01-10T00:45:29;18.42;;;12.70;;
10315;SDS011;5203;48.976;8.306;2024-01-10T00:47:54;21.08;;;12.32;;
10315;SDS011;5203;48.976;8.306;2024-01-10T00:50:20;21.73;;;12.88;;
10315;SDS011;5203;48.976;8.306;2024-01-10T00:52:46;16.25;;;11.27;;
10315;SDS011;5203;48.976;8.306;2024-01-10T00:55:11;20.00;;;11.57;;
10315;SDS011;5203;48.976;8.306;2024-01-10T00:57:37;20.42;;;12.35;;
10315;SDS011;5203;48.976;8.306;2024-01-10T01:00:05;21.20;;;12.43;;
10315;SDS011;5203;48.976;8.306;2024-01-10T01:02:35;21.30;;;13.82;;
10315;SDS011;5203;48.976;8.306;2024-01-10T01:05:04;16.20;;;13.52;;
10315;SDS011;5203;48.976;8.306;2024-01-10T01:07:32;17.58;;;13.60;;
10315;SDS011;5203;48.976;8.306;2024-01-10T01:09:58;21.30;;;13.35;;
10315;SDS011;5203;48.976;8.306;2024-01-10T01:12:23;24.05;;;13.52;;
10315;SDS011;5203;48.976;8.306;2024-01-10T01:14:49;20.48;;;12.10;;
10315;SDS011;5203;48.976;8.306;2024-01-10T01:17:15;18.65;;;11.93;;
10315;SDS011;5203;48.976;8.306;2024-01-10T01:19:41;15.38;;;11.88;;
10315;SDS011;5203;48.976;8.306;2024-01-10T01:22:06;20.92;;;13.45;;
10315;SDS011;5203;48.976;8.306;2024-01-10T01:24:32;23.92;;;13.35;;
10315;SDS011;5203;48.976;8.306;2024-01-10T01:26:58;20.15;;;12.40;;
10315;SDS011;5203;48.976;8.306;2024-01-10T01:29:23;23.58;;;13.05;;
10315;SDS011;5203;48.976;8.306;2024-01-10T01:31:49;20.55;;;11.85;;
10315;SDS011;5203;48.976;8.306;2024-01-10T01:34:15;22.98;;;13.82;;
10315;SDS011;5203;48.976;8.306;2024-01-10T01:36:41;17.45;;;12.27;;
10315;SDS011;5203;48.976;8.306;2024-01-10T01:39:06;21.25;;;12.18;;
10315;SDS011;5203;48.976;8.306;2024-01-10T01:41:32;23.80;;;13.15;;
10315;SDS011;5203;48.976;8.306;2024-01-10T01:43:57;23.05;;;13.20;;
10315;SDS011;5203;48.976;8.306;2024-01-10T01:46:23;19.85;;;13.65;;
10315;SDS011;5203;48.976;8.306;2024-01-10T01:48:49;22.45;;;13.75;;
10315;SDS011;5203;48.976;8.306;2024-01-10T01:51:17;20.52;;;13.23;;
10315;SDS011;5203;48.976;8.306;2024-01-10T01:53:46;18.65;;;12.45;;
10315;SDS011;5203;48.976;8.306;2024-01-10T01:56:13;21.73;;;13.07;;
10315;SDS011;5203;48.976;8.306;2024-01-10T01:58:39;21.50;;;13.45;;
10315;SDS011;5203;48.976;8.306;2024-01-10T02:01:05;23.25;;;13.80;;
10315;SDS011;5203;48.976;8.306;2024-01-10T02:03:31;25.83;;;14.63;;
10315;SDS011;5203;48.976;8.306;2024-01-10T02:05:58;23.02;;;15.13;;
10315;SDS011;5203;48.976;8.306;2024-01-10T02:08:24;25.88;;;13.32;;
10315;SDS011;5203;48.976;8.306;2024-01-10T02:10:50;20.50;;;13.45;;
10315;SDS011;5203;48.976;8.306;2024-01-10T02:13:16;29.33;;;14.35;;
10315;SDS011;5203;48.976;8.306;2024-01-10T02:15:42;24.10;;;14.25;;
10315;SDS011;5203;48.976;8.306;2024-01-10T02:18:08;24.38;;;14.73;;
10315;SDS011;5203;48.976;8.306;2024-01-10T02:20:37;25.40;;;13.02;;
10315;SDS011;5203;48.976;8.306;2024-01-10T02:23:03;22.13;;;12.88;;
10315;SDS011;5203;48.976;8.306;2024-01-10T02:25:29;20.83;;;14.10;;
10315;SDS011;5203;48.976;8.306;2024-01-10T02:27:55;19.42;;;12.80;;
10315;SDS011;5203;48.976;8.306;2024-01-10T02:30:20;21.40;;;13.15;;
10315;SDS011;5203;48.976;8.306;2024-01-10T02:32:49;23.50;;;12.57;;
10315;SDS011;5203;48.976;8.306;2024-01-10T02:35:15;25.13;;;13.85;;
10315;SDS011;5203;48.976;8.306;2024-01-10T02:37:41;26.83;;;14.38;;
10315;SDS011;5203;48.976;8.306;2024-01-10T02:40:06;20.77;;;10.10;;
10315;SDS011;5203;48.976;8.306;2024-01-10T02:42:33;21.98;;;13.23;;
10315;SDS011;5203;48.976;8.306;2024-01-10T02:45:01;27.80;;;14.45;;
10315;SDS011;5203;48.976;8.306;2024-01-10T02:47:27;24.85;;;13.32;;
10315;SDS011;5203;48.976;8.306;2024-01-10T02:49:54;21.42;;;11.23;;
10315;SDS011;5203;48.976;8.306;2024-01-10T02:52:19;21.60;;;13.60;;
10315;SDS011;5203;48.976;8.306;2024-01-10T02:54:45;25.88;;;14.38;;
10315;SDS011;5203;48.976;8.306;2024-01-10T02:57:11;22.70;;;13.07;;
10315;SDS011;5203;48.976;8.306;2024-01-10T02:59:38;20.83;;;12.80;;
10315;SDS011;5203;48.976;8.306;2024-01-10T03:02:04;22.30;;;13.50;;
10315;SDS011;5203;48.976;8.306;2024-01-10T03:04:29;23.30;;;15.85;;
10315;SDS011;5203;48.976;8.306;2024-01-10T03:06:55;23.35;;;13.50;;
10315;SDS011;5203;48.976;8.306;2024-01-10T03:09:22;22.17;;;11.93;;
10315;SDS011;5203;48.976;8.306;2024-01-10T03:11:48;24.77;;;12.35;;
10315;SDS011;5203;48.976;8.306;2024-01-10T03:14:14;22.85;;;13.70;;
10315;SDS011;5203;48.976;8.306;2024-01-10T03:16:40;22.42;;;14.30;;
10315;SDS011;5203;48.976;8.306;2024-01-10T03:19:06;25.15;;;13.75;;
10315;SDS011;5203;48.976;8.306;2024-01-10T03:21:31;21.30;;;14.35;;
10315;SDS011;5203;48.976;8.306;2024-01-10T03:23:57;30.50;;;14.93;;
10315;SDS011;5203;48.976;8.306;2024-01-10T03:26:26;30.77;;;14.10;;
10315;SDS011;5203;48.976;8.306;2024-01-10T03:28:53;27.73;;;13.88;;
10315;SDS011;5203;48.976;8.306;2024-01-10T03:31:19;21.60;;;12.63;;
10315;SDS011;5203;48.976;8.306;2024-01-10T03:33:45;25.17;;;14.15;;
10315;SDS011;5203;48.976;8.306;2024-01-10T03:36:12;29.30;;;14.55;;
10315;SDS011;5203;48.976;8.306;2024-01-10T03:41:05;20.50;;;14.20;;
10315;SDS011;5203;48.976;8.306;2024-01-10T03:43:31;25.73;;;14.20;;
10315;SDS011;5203;48.976;8.306;2024-01-10T03:45:57;18.70;;;12.38;;
10315;SDS011;5203;48.976;8.306;2024-01-10T03:48:23;25.58;;;13.80;;
10315;SDS011;5203;48.976;8.306;2024-01-10T03:50:51;29.10;;;15.18;;
10315;SDS011;5203;48.976;8.306;2024-01-10T03:53:18;25.83;;;14.52;;
10315;SDS011;5203;48.976;8.306;2024-01-10T03:55:43;23.20;;;14.57;;
10315;SDS011;5203;48.976;8.306;2024-01-10T03:58:09;22.48;;;15.45;;
10315;SDS011;5203;48.976;8.306;2024-01-10T04:00:34;22.48;;;14.15;;
10315;SDS011;5203;48.976;8.306;2024-01-10T04:03:00;27.35;;;16.40;;
10315;SDS011;5203;48.976;8.306;2024-01-10T04:05:27;24.30;;;14.82;;
10315;SDS011;5203;48.976;8.306;2024-01-10T04:07:53;25.13;;;14.57;;
10315;SDS011;5203;48.976;8.306;2024-01-10T04:10:19;29.98;;;14.48;;
10315;SDS011;5203;48.976;8.306;2024-01-10T04:12:46;24.05;;;13.63;;
10315;SDS011;5203;48.976;8.306;2024-01-10T04:15:11;27.15;;;15.27;;
10315;SDS011;5203;48.976;8.306;2024-01-10T04:17:38;27.55;;;14.82;;
10315;SDS011;5203;48.976;8.306;2024-01-10T04:20:04;24.60;;;14.82;;
10315;SDS011;5203;48.976;8.306;2024-01-10T04:22:34;25.00;;;15.43;;
10315;SDS011;5203;48.976;8.306;2024-01-10T04:25:00;23.05;;;14.05;;
10315;SDS011;5203;48.976;8.306;2024-01-10T04:27:27;27.98;;;15.10;;
10315;SDS011;5203;48.976;8.306;2024-01-10T04:29:54;27.30;;;16.00;;
10315;SDS011;5203;48.976;8.306;2024-01-10T04:32:20;24.00;;;14.93;;
10315;SDS011;5203;48.976;8.306;2024-01-10T04:34:45;25.63;;;17.48;;
10315;SDS011;5203;48.976;8.306;2024-01-10T04:37:12;25.60;;;15.52;;
10315;SDS011;5203;48.976;8.306;2024-01-10T04:39:39;25.38;;;14.45;;
10315;SDS011;5203;48.976;8.306;2024-01-10T04:44:33;23.65;;;14.13;;
10315;SDS011;5203;48.976;8.306;2024-01-10T04:46:59;24.48;;;13.13;;
10315;SDS011;5203;48.976;8.306;2024-01-10T04:49:25;24.58;;;13.80;;
10315;SDS011;5203;48.976;8.306;2024-01-10T04:51:51;29.73;;;15.20;;
10315;SDS011;5203;48.976;8.306;2024-01-10T04:54:17;26.05;;;15.70;;
10315;SDS011;5203;48.976;8.306;2024-01-10T04:56:42;29.38;;;15.18;;
10315;SDS011;5203;48.976;8.306;2024-01-10T04:59:08;30.27;;;15.40;;
10315;SDS011;5203;48.976;8.306;2024-01-10T05:01:33;27.98;;;14.38;;
10315;SDS011;5203;48.976;8.306;2024-01-10T05:04:00;27.40;;;15.55;;
10315;SDS011;5203;48.976;8.306;2024-01-10T05:06:25;28.15;;;14.45;;
10315;SDS011;5203;48.976;8.306;2024-01-10T05:08:51;31.08;;;18.52;;
10315;SDS011;5203;48.976;8.306;2024-01-10T05:11:17;27.75;;;15.68;;
10315;SDS011;5203;48.976;8.306;2024-01-10T05:13:42;29.33;;;17.80;;
10315;SDS011;5203;48.976;8.306;2024-01-10T05:16:08;33.13;;;17.95;;
10315;SDS011;5203;48.976;8.306;2024-01-10T05:18:34;46.25;;;24.23;;
10315;SDS011;5203;48.976;8.306;2024-01-10T05:21:00;47.60;;;23.48;;
10315;SDS011;5203;48.976;8.306;2024-01-10T05:23:26;33.33;;;20.52;;
10315;SDS011;5203;48.976;8.306;2024-01-10T05:25:53;24.45;;;14.43;;
10315;SDS011;5203;48.976;8.306;2024-01-10T05:28:19;21.88;;;15.00;;
10315;SDS011;5203;48.976;8.306;2024-01-10T05:30:45;25.08;;;13.82;;
10315;SDS011;5203;48.976;8.306;2024-01-10T05:33:10;26.17;;;15.50;;
10315;SDS011;5203;48.976;8.306;2024-01-10T05:35:36;35.38;;;18.35;;
10315;SDS011;5203;48.976;8.306;2024-01-10T05:38:07;29.67;;;16.05;;
10315;SDS011;5203;48.976;8.306;2024-01-10T05:40:36;25.45;;;16.63;;
10315;SDS011;5203;48.976;8.306;2024-01-10T05:43:02;27.60;;;16.02;;
10315;SDS011;5203;48.976;8.306;2024-01-10T05:45:27;29.23;;;15.48;;
10315;SDS011;5203;48.976;8.306;2024-01-10T05:50:21;28.48;;;15.48;;
10315;SDS011;5203;48.976;8.306;2024-01-10T05:52:47;29.33;;;15.68;;
10315;SDS011;5203;48.976;8.306;2024-01-10T05:55:13;31.98;;;18.70;;
10315;SDS011;5203;48.976;8.306;2024-01-10T05:57:39;29.30;;;19.58;;
10315;SDS011;5203;48.976;8.306;2024-01-10T06:00:05;23.90;;;14.65;;
10315;SDS011;5203;48.976;8.306;2024-01-10T06:02:41;28.50;;;16.17;;
10315;SDS011;5203;48.976;8.306;2024-01-10T06:05:07;28.13;;;17.20;;
10315;SDS011;5203;48.976;8.306;2024-01-10T06:07:38;33.58;;;18.35;;
10315;SDS011;5203;48.976;8.306;2024-01-10T06:10:06;23.30;;;15.55;;
10315;SDS011;5203;48.976;8.306;2024-01-10T06:12:32;33.05;;;18.52;;
10315;SDS011;5203;48.976;8.306;2024-01-10T06:14:58;28.77;;;16.40;;
10315;SDS011;5203;48.976;8.306;2024-01-10T06:17:24;28.25;;;18.33;;
10315;SDS011;5203;48.976;8.306;2024-01-10T06:19:50;36.17;;;17.20;;
10315;SDS011;5203;48.976;8.306;2024-01-10T06:22:16;49.38;;;27.48;;
10315;SDS011;5203;48.976;8.306;2024-01-10T06:24:42;36.00;;;19.52;;
10315;SDS011;5203;48.976;8.306;2024-01-10T06:27:08;27.80;;;15.88;;
10315;SDS011;5203;48.976;8.306;2024-01-10T06:29:35;28.90;;;15.73;;
10315;SDS011;5203;48.976;8.306;2024-01-10T06:32:01;30.90;;;16.77;;
10315;SDS011;5203;48.976;8.306;2024-01-10T06:34:40;31.63;;;19.58;;
10315;SDS011;5203;48.976;8.306;2024-01-10T06:39:34;23.63;;;14.75;;
10315;SDS011;5203;48.976;8.306;2024-01-10T06:42:00;28.02;;;16.88;;
10315;SDS011;5203;48.976;8.306;2024-01-10T06:44:28;29.75;;;17.58;;
10315;SDS011;5203;48.976;8.306;2024-01-10T06:46:55;24.58;;;14.70;;
10315;SDS011;5203;48.976;8.306;2024-01-10T06:49:20;28.95;;;16.20;;
10315;SDS011;5203;48.976;8.306;2024-01-10T06:51:46;23.40;;;15.98;;
10315;SDS011;5203;48.976;8.306;2024-01-10T06:54:11;27.90;;;15.60;;
10315;SDS011;5203;48.976;8.306;2024-01-10T06:56:40;26.40;;;16.27;;
10315;SDS011;5203;48.976;8.306;2024-01-10T06:59:06;28.92;;;17.23;;
10315;SDS011;5203;48.976;8.306;2024-01-10T07:01:32;28.85;;;16.08;;
10315;SDS011;5203;48.976;8.306;2024-01-10T07:03:58;28.40;;;14.45;;
10315;SDS011;5203;48.976;8.306;2024-01-10T07:06:24;29.00;;;14.23;;
10315;SDS011;5203;48.976;8.306;2024-01-10T07:08:50;36.10;;;18.73;;
10315;SDS011;5203;48.976;8.306;2024-01-10T07:11:16;27.10;;;17.23;;
10315;SDS011;5203;48.976;8.306;2024-01-10T07:13:42;35.28;;;21.73;;
10315;SDS011;5203;48.976;8.306;2024-01-10T07:16:08;26.75;;;18.70;;
10315;SDS011;5203;48.976;8.306;2024-01-10T07:18:34;32.03;;;16.05;;
10315;SDS011;5203;48.976;8.306;2024-01-10T07:21:01;30.85;;;16.13;;
10315;SDS011;5203;48.976;8.306;2024-01-10T07:23:26;20.27;;;14.25;;
10315;SDS011;5203;48.976;8.306;2024-01-10T07:25:52;28.73;;;18.52;;
10315;SDS011;5203;48.976;8.306;2024-01-10T07:28:18;28.50;;;15.27;;
10315;SDS011;5203;48.976;8.306;2024-01-10T07:30:44;24.65;;;15.85;;
10315;SDS011;5203;48.976;8.306;2024-01-10T07:33:10;30.92;;;17.17;;
10315;SDS011;5203;48.976;8.306;2024-01-10T07:35:36;29.58;;;15.98;;
10315;SDS011;5203;48.976;8.306;2024-01-10T07:38:03;29.05;;;17.65;;
10315;SDS011;5203;48.976;8.306;2024-01-10T07:40:32;27.13;;;16.23;;
10315;SDS011;5203;48.976;8.306;2024-01-10T07:42:58;30.17;;;18.08;;
10315;SDS011;5203;48.976;8.306;2024-01-10T07:45:24;32.10;;;17.95;;
10315;SDS011;5203;48.976;8.306;2024-01-10T07:47:49;26.83;;;17.13;;
10315;SDS011;5203;48.976;8.306;2024-01-10T07:50:15;32.80;;;13.68;;
10315;SDS011;5203;48.976;8.306;2024-01-10T07:52:41;29.95;;;16.60;;
10315;SDS011;5203;48.976;8.306;2024-01-10T07:55:08;28.58;;;17.08;;
10315;SDS011;5203;48.976;8.306;2024-01-10T07:57:35;25.17;;;16.80;;
10315;SDS011;5203;48.976;8.306;2024-01-10T08:00:02;26.50;;;12.82;;
10315;SDS011;5203;48.976;8.306;2024-01-10T08:02:29;22.92;;;15.85;;
10315;SDS011;5203;48.976;8.306;2024-01-10T08:04:59;34.55;;;15.27;;
10315;SDS011;5203;48.976;8.306;2024-01-10T08:07:37;28.75;;;19.85;;
10315;SDS011;5203;48.976;8.306;2024-01-10T08:10:06;32.90;;;15.05;;
10315;SDS011;5203;48.976;8.306;2024-01-10T08:12:34;29.52;;;16.65;;
10315;SDS011;5203;48.976;8.306;2024-01-10T08:15:09;29.17;;;18.10;;
10315;SDS011;5203;48.976;8.306;2024-01-10T08:17:35;27.95;;;17.63;;
10315;SDS011;5203;48.976;8.306;2024-01-10T08:22:31;28.63;;;17.27;;
10315;SDS011;5203;48.976;8.306;2024-01-10T08:24:56;30.25;;;18.23;;
10315;SDS011;5203;48.976;8.306;2024-01-10T08:27:23;25.50;;;16.90;;
10315;SDS011;5203;48.976;8.306;2024-01-10T08:29:49;30.67;;;17.30;;
10315;SDS011;5203;48.976;8.306;2024-01-10T08:32:14;29.23;;;17.15;;
10315;SDS011;5203;48.976;8.306;2024-01-10T08:34:42;30.88;;;15.18;;
10315;SDS011;5203;48.976;8.306;2024-01-10T08:37:09;29.77;;;16.42;;
10315;SDS011;5203;48.976;8.306;2024-01-10T08:39:35;29.08;;;16.95;;
10315;SDS011;5203;48.976;8.306;2024-01-10T08:42:01;30.45;;;17.50;;
10315;SDS011;5203;48.976;8.306;2024-01-10T08:44:27;31.10;;;16.95;;
10315;SDS011;5203;48.976;8.306;2024-01-10T08:46:52;28.10;;;15.52;;
10315;SDS011;5203;48.976;8.306;2024-01-10T08:49:18;32.08;;;17.63;;
10315;SDS011;5203;48.976;8.306;2024-01-10T08:51:44;31.75;;;17.75;;
10315;SDS011;5203;48.976;8.306;2024-01-10T08:54:11;36.78;;;16.30;;
10315;SDS011;5203;48.976;8.306;2024-01-10T08:56:41;26.70;;;17.02;;
10315;SDS011;5203;48.976;8.306;2024-01-10T08:59:10;28.75;;;16.95;;
10315;SDS011;5203;48.976;8.306;2024-01-10T09:01:37;25.73;;;14.55;;
10315;SDS011;5203;48.976;8.306;2024-01-10T09:04:12;31.92;;;17.95;;
10315;SDS011;5203;48.976;8.306;2024-01-10T09:06:38;31.90;;;17.35;;
10315;SDS011;5203;48.976;8.306;2024-01-10T09:09:05;30.10;;;15.75;;
10315;SDS011;5203;48.976;8.306;2024-01-10T09:11:32;27.65;;;15.93;;
10315;SDS011;5203;48.976;8.306;2024-01-10T09:14:01;32.83;;;17.00;;
10315;SDS011;5203;48.976;8.306;2024-01-10T09:16:34;32.53;;;16.85;;
10315;SDS011;5203;48.976;8.306;2024-01-10T09:19:02;25.13;;;16.38;;
10315;SDS011;5203;48.976;8.306;2024-01-10T09:21:28;26.65;;;16.20;;
10315;SDS011;5203;48.976;8.306;2024-01-10T09:23:55;30.52;;;16.15;;
10315;SDS011;5203;48.976;8.306;2024-01-10T09:26:23;34.35;;;20.50;;
10315;SDS011;5203;48.976;8.306;2024-01-10T09:28:52;28.20;;;18.15;;
10315;SDS011;5203;48.976;8.306;2024-01-10T09:31:17;31.45;;;17.70;;
10315;SDS011;5203;48.976;8.306;2024-01-10T09:33:43;67.10;;;27.23;;
10315;SDS011;5203;48.976;8.306;2024-01-10T09:36:12;62.95;;;26.70;;
10315;SDS011;5203;48.976;8.306;2024-01-10T09:38:39;114.13;;;40.58;;
10315;SDS011;5203;48.976;8.306;2024-01-10T09:41:08;34.90;;;19.85;;
10315;SDS011;5203;48.976;8.306;2024-01-10T09:43:39;37.03;;;18.73;;
10315;SDS011;5203;48.976;8.306;2024-01-10T09:46:07;31.48;;;19.30;;
10315;SDS011;5203;48.976;8.306;2024-01-10T09:48:35;41.63;;;19.25;;
10315;SDS011;5203;48.976;8.306;2024-01-10T09:51:01;34.83;;;18.55;;
10315;SDS011;5203;48.976;8.306;2024-01-10T09:53:27;35.28;;;20.08;;
10315;SDS011;5203;48.976;8.306;2024-01-10T09:55:56;32.58;;;20.48;;
10315;SDS011;5203;48.976;8.306;2024-01-10T09:58:24;25.38;;;16.58;;
10315;SDS011;5203;48.976;8.306;2024-01-10T10:00:51;34.85;;;20.40;;
10315;SDS011;5203;48.976;8.306;2024-01-10T10:03:19;32.55;;;19.30;;
10315;SDS011;5203;48.976;8.306;2024-01-10T10:05:47;30.55;;;17.95;;
10315;SDS011;5203;48.976;8.306;2024-01-10T10:08:15;32.00;;;18.48;;
10315;SDS011;5203;48.976;8.306;2024-01-10T10:10:48;37.03;;;20.42;;
10315;SDS011;5203;48.976;8.306;2024-01-10T10:13:24;36.22;;;23.70;;
10315;SDS011;5203;48.976;8.306;2024-01-10T10:16:03;42.55;;;20.35;;
10315;SDS011;5203;48.976;8.306;2024-01-10T10:18:29;34.33;;;19.65;;
10315;SDS011;5203;48.976;8.306;2024-01-10T10:24:00;40.67;;;17.10;;
10315;SDS011;5203;48.976;8.306;2024-01-10T10:26:27;32.53;;;18.13;;
10315;SDS011;5203;48.976;8.306;2024-01-10T10:28:54;36.40;;;20.52;;
10315;SDS011;5203;48.976;8.306;2024-01-10T10:31:21;30.70;;;18.02;;
10315;SDS011;5203;48.976;8.306;2024-01-10T10:33:49;37.17;;;18.48;;
10315;SDS011;5203;48.976;8.306;2024-01-10T10:36:16;40.33;;;20.63;;
10315;SDS011;5203;48.976;8.306;2024-01-10T10:38:43;32.38;;;19.45;;
10315;SDS011;5203;48.976;8.306;2024-01-10T10:41:09;40.15;;;16.88;;
10315;SDS011;5203;48.976;8.306;2024-01-10T10:43:38;43.17;;;19.38;;
10315;SDS011;5203;48.976;8.306;2024-01-10T10:46:11;34.67;;;18.42;;
10315;SDS011;5203;48.976;8.306;2024-01-10T10:48:40;36.78;;;22.75;;
10315;SDS011;5203;48.976;8.306;2024-01-10T10:51:09;30.73;;;19.52;;
10315;SDS011;5203;48.976;8.306;2024-01-10T10:53:39;39.20;;;20.98;;
10315;SDS011;5203;48.976;8.306;2024-01-10T10:56:10;34.22;;;18.20;;
10315;SDS011;5203;48.976;8.306;2024-01-10T10:58:41;35.08;;;20.02;;
10315;SDS011;5203;48.976;8.306;2024-01-10T11:01:10;35.83;;;20.73;;
10315;SDS011;5203;48.976;8.306;2024-01-10T11:03:40;40.80;;;19.55;;
10315;SDS011;5203;48.976;8.306;2024-01-10T11:06:07;40.65;;;22.02;;
10315;SDS011;5203;48.976;8.306;2024-01-10T11:08:38;36.78;;;20.77;;
10315;SDS011;5203;48.976;8.306;2024-01-10T11:11:19;38.30;;;20.15;;
10315;SDS011;5203;48.976;8.306;2024-01-10T11:25:05;40.22;;;21.67;;
10315;SDS011;5203;48.976;8.306;2024-01-10T11:27:31;35.65;;;19.88;;
10315;SDS011;5203;48.976;8.306;2024-01-10T11:29:57;36.80;;;21.55;;
10315;SDS011;5203;48.976;8.306;2024-01-10T11:32:24;40.75;;;18.85;;
10315;SDS011;5203;48.976;8.306;2024-01-10T11:37:18;39.00;;;20.65;;
10315;SDS011;5203;48.976;8.306;2024-01-10T11:39:44;43.00;;;23.40;;
10315;SDS011;5203;48.976;8.306;2024-01-10T11:42:10;41.35;;;22.58;;
10315;SDS011;5203;48.976;8.306;2024-01-10T11:44:49;43.63;;;23.42;;
10315;SDS011;5203;48.976;8.306;2024-01-10T11:47:16;43.67;;;22.63;;
10315;SDS011;5203;48.976;8.306;2024-01-10T11:49:58;37.75;;;21.35;;
10315;SDS011;5203;48.976;8.306;2024-01-10T11:52:25;40.28;;;20.83;;
10315;SDS011;5203;48.976;8.306;2024-01-10T11:55:00;44.85;;;22.65;;
10315;SDS011;5203;48.976;8.306;2024-01-10T11:59:53;43.00;;;22.52;;
10315;SDS011;5203;48.976;8.306;2024-01-10T12:02:21;37.00;;;21.55;;
10315;SDS011;5203;48.976;8.306;2024-01-10T12:04:50;41.03;;;20.85;;
10315;SDS011;5203;48.976;8.306;2024-01-10T12:07:17;35.60;;;20.63;;
10315;SDS011;5203;48.976;8.306;2024-01-10T12:09:44;46.72;;;24.15;;
10315;SDS011;5203;48.976;8.306;2024-01-10T12:12:10;41.70;;;21.92;;
10315;SDS011;5203;48.976;8.306;2024-01-10T12:14:37;43.35;;;23.38;;
10315;SDS011;5203;48.976;8.306;2024-01-10T12:17:04;40.95;;;23.10;;
10315;SDS011;5203;48.976;8.306;2024-01-10T12:19:33;42.33;;;22.33;;
10315;SDS011;5203;48.976;8.306;2024-01-10T12:22:00;41.40;;;23.13;;
10315;SDS011;5203;48.976;8.306;2024-01-10T12:24:27;43.90;;;24.10;;
10315;SDS011;5203;48.976;8.306;2024-01-10T12:26:56;41.60;;;23.13;;
10315;SDS011;5203;48.976;8.306;2024-01-10T12:29:25;43.00;;;23.65;;
10315;SDS011;5203;48.976;8.306;2024-01-10T12:31:51;46.30;;;24.05;;
10315;SDS011;5203;48.976;8.306;2024-01-10T12:34:20;38.45;;;22.48;;
10315;SDS011;5203;48.976;8.306;2024-01-10T12:36:49;42.13;;;21.92;;
10315;SDS011;5203;48.976;8.306;2024-01-10T12:39:21;42.90;;;23.75;;
10315;SDS011;5203;48.976;8.306;2024-01-10T12:41:48;45.55;;;24.02;;
10315;SDS011;5203;48.976;8.306;2024-01-10T12:44:15;40.33;;;21.52;;
10315;SDS011;5203;48.976;8.306;2024-01-10T12:46:50;48.13;;;22.88;;
10315;SDS011;5203;48.976;8.306;2024-01-10T12:49:17;49.28;;;21.83;;
10315;SDS011;5203;48.976;8.306;2024-01-10T12:51:42;39.78;;;23.25;;
10315;SDS011;5203;48.976;8.306;2024-01-10T12:54:08;41.58;;;22.80;;
10315;SDS011;5203;48.976;8.306;2024-01-10T12:56:34;43.58;;;22.92;;
10315;SDS011;5203;48.976;8.306;2024-01-10T12:59:00;45.58;;;24.42;;
10315;SDS011;5203;48.976;8.306;2024-01-10T13:01:25;42.35;;;24.23;;
10315;SDS011;5203;48.976;8.306;2024-01-10T13:03:51;44.00;;;22.77;;
10315;SDS011;5203;48.976;8.306;2024-01-10T13:06:17;46.67;;;22.42;;
10315;SDS011;5203;48.976;8.306;2024-01-10T13:08:47;52.78;;;25.73;;
10315;SDS011;5203;48.976;8.306;2024-01-10T13:11:13;49.30;;;26.35;;
10315;SDS011;5203;48.976;8.306;2024-01-10T13:13:39;35.65;;;22.70;;
10315;SDS011;5203;48.976;8.306;2024-01-10T13:16:06;52.92;;;24.02;;
10315;SDS011;5203;48.976;8.306;2024-01-10T13:18:35;55.28;;;25.65;;
10315;SDS011;5203;48.976;8.306;2024-01-10T13:21:01;43.55;;;24.42;;
10315;SDS011;5203;48.976;8.306;2024-01-10T13:23:30;39.63;;;23.23;;
10315;SDS011;5203;48.976;8.306;2024-01-10T13:25:56;45.28;;;24.38;;
10315;SDS011;5203;48.976;8.306;2024-01-10T13:28:21;41.83;;;22.05;;
10315;SDS011;5203;48.976;8.306;2024-01-10T13:30:47;55.42;;;25.05;;
10315;SDS011;5203;48.976;8.306;2024-01-10T13:33:13;41.88;;;23.17;;
10315;SDS011;5203;48.976;8.306;2024-01-10T13:35:39;68.03;;;32.80;;
10315;SDS011;5203;48.976;8.306;2024-01-10T13:38:05;63.50;;;34.38;;
10315;SDS011;5203;48.976;8.306;2024-01-10T13:40:31;47.90;;;28.35;;
10315;SDS011;5203;48.976;8.306;2024-01-10T13:42:59;47.47;;;26.75;;
10315;SDS011;5203;48.976;8.306;2024-01-10T13:45:27;49.42;;;25.92;;
10315;SDS011;5203;48.976;8.306;2024-01-10T13:47:53;48.67;;;23.80;;
10315;SDS011;5203;48.976;8.306;2024-01-10T13:50:19;51.53;;;26.75;;
10315;SDS011;5203;48.976;8.306;2024-01-10T13:52:44;52.95;;;22.92;;
10315;SDS011;5203;48.976;8.306;2024-01-10T13:55:10;46.15;;;23.85;;
10315;SDS011;5203;48.976;8.306;2024-01-10T13:57:36;38.60;;;22.52;;
10315;SDS011;5203;48.976;8.306;2024-01-10T14:00:02;46.35;;;24.05;;
10315;SDS011;5203;48.976;8.306;2024-01-10T14:02:28;44.17;;;24.15;;
10315;SDS011;5203;48.976;8.306;2024-01-10T14:04:54;48.65;;;26.30;;
10315;SDS011;5203;48.976;8.306;2024-01-10T14:09:48;49.95;;;23.67;;
10315;SDS011;5203;48.976;8.306;2024-01-10T14:12:13;45.70;;;21.25;;
10315;SDS011;5203;48.976;8.306;2024-01-10T14:14:39;48.03;;;23.35;;
10315;SDS011;5203;48.976;8.306;2024-01-10T14:17:05;42.47;;;23.83;;
10315;SDS011;5203;48.976;8.306;2024-01-10T14:19:31;44.50;;;25.90;;
10315;SDS011;5203;48.976;8.306;2024-01-10T14:21:57;49.40;;;24.90;;
10315;SDS011;5203;48.976;8.306;2024-01-10T14:24:23;44.28;;;23.60;;
10315;SDS011;5203;48.976;8.306;2024-01-10T14:26:49;40.33;;;23.25;;
10315;SDS011;5203;48.976;8.306;2024-01-10T14:29:15;49.33;;;24.05;;
10315;SDS011;5203;48.976;8.306;2024-01-10T14:31:41;40.33;;;22.42;;
10315;SDS011;5203;48.976;8.306;2024-01-10T14:34:06;45.40;;;23.15;;
10315;SDS011;5203;48.976;8.306;2024-01-10T14:36:32;41.38;;;25.27;;
10315;SDS011;5203;48.976;8.306;2024-01-10T14:38:58;47.42;;;27.05;;
10315;SDS011;5203;48.976;8.306;2024-01-10T14:41:24;45.10;;;24.27;;
10315;SDS011;5203;48.976;8.306;2024-01-10T14:43:50;46.10;;;26.25;;
10315;SDS011;5203;48.976;8.306;2024-01-10T14:46:16;43.55;;;23.63;;
10315;SDS011;5203;48.976;8.306;2024-01-10T14:48:42;52.67;;;26.33;;
10315;SDS011;5203;48.976;8.306;2024-01-10T14:51:07;50.05;;;27.25;;
10315;SDS011;5203;48.976;8.306;2024-01-10T14:53:33;46.45;;;27.95;;
10315;SDS011;5203;48.976;8.306;2024-01-10T14:56:01;41.25;;;21.75;;
10315;SDS011;5203;48.976;8.306;2024-01-10T14:58:27;47.58;;;24.02;;
10315;SDS011;5203;48.976;8.306;2024-01-10T15:00:53;45.13;;;24.05;;
10315;SDS011;5203;48.976;8.306;2024-01-10T15:03:18;48.63;;;23.83;;
10315;SDS011;5203;48.976;8.306;2024-01-10T15:05:44;58.90;;;28.42;;